createdAt,value
2018-08-24T00:01:52.107Z,9.90
2018-08-24T00:04:19.411Z,10.07
2018-08-24T00:06:46.761Z,11.70
2018-08-24T00:09:15.157Z,10.73
2018-08-24T00:11:42.462Z,11.40
2018-08-24T00:14:11.095Z,10.80
2018-08-24T00:16:39.673Z,11.17
2018-08-24T00:19:10.621Z,11.17
2018-08-24T00:21:38.166Z,11.40
2018-08-24T00:24:06.137Z,10.77
2018-08-24T00:26:33.831Z,11.77
2018-08-24T00:29:01.141Z,11.27
2018-08-24T00:31:28.430Z,11.00
2018-08-24T00:33:55.777Z,11.43
2018-08-24T00:36:24.871Z,10.83
2018-08-24T00:38:52.165Z,11.63
2018-08-24T00:41:19.671Z,11.20
2018-08-24T00:43:46.992Z,12.53
2018-08-24T00:46:14.277Z,12.00
2018-08-24T00:48:41.596Z,12.00
2018-08-24T00:51:09.189Z,11.67
2018-08-24T00:53:38.896Z,11.67
2018-08-24T00:56:07.627Z,12.13
2018-08-24T00:58:35.856Z,12.17
2018-08-24T01:01:03.164Z,11.43
2018-08-24T01:03:30.509Z,13.07
2018-08-24T01:05:58.019Z,12.53
2018-08-24T01:08:25.485Z,12.97
2018-08-24T01:10:52.769Z,12.00
2018-08-24T01:13:20.180Z,13.20
2018-08-24T01:15:49.953Z,12.97
2018-08-24T01:18:21.146Z,12.27
2018-08-24T01:20:49.455Z,12.53
2018-08-24T01:23:17.592Z,13.43
2018-08-24T01:25:44.947Z,12.83
2018-08-24T01:28:12.239Z,13.33
2018-08-24T01:30:39.541Z,13.13
2018-08-24T01:33:06.839Z,12.47
2018-08-24T01:35:34.160Z,12.47
2018-08-24T01:38:01.550Z,12.33
2018-08-24T01:40:28.899Z,13.10
2018-08-24T01:42:56.220Z,12.93
2018-08-24T01:45:23.790Z,13.00
2018-08-24T01:47:51.088Z,14.80
2018-08-24T01:50:18.380Z,12.97
2018-08-24T01:52:45.699Z,13.50
2018-08-24T01:55:12.988Z,12.43
2018-08-24T01:57:40.435Z,12.50
2018-08-24T02:00:07.776Z,11.43
2018-08-24T02:02:35.595Z,12.37
2018-08-24T02:05:02.983Z,11.57
2018-08-24T02:07:30.296Z,12.90
2018-08-24T02:09:57.636Z,13.40
2018-08-24T02:12:31.034Z,13.37
2018-08-24T02:14:58.351Z,12.47
2018-08-24T02:17:31.453Z,13.70
2018-08-24T02:20:04.416Z,13.87
2018-08-24T02:22:31.730Z,15.10
2018-08-24T02:24:59.023Z,14.00
2018-08-24T02:27:26.342Z,14.70
2018-08-24T02:29:56.967Z,16.30
2018-08-24T02:32:24.300Z,14.77
2018-08-24T02:34:51.619Z,14.23
2018-08-24T02:37:18.963Z,14.23
2018-08-24T02:39:46.288Z,14.47
2018-08-24T02:42:13.578Z,15.20
2018-08-24T02:44:40.877Z,15.17
2018-08-24T02:47:08.225Z,15.23
2018-08-24T02:49:35.791Z,15.23
2018-08-24T02:52:03.140Z,16.50
2018-08-24T02:54:30.469Z,15.13
2018-08-24T02:56:57.820Z,15.90
2018-08-24T02:59:25.107Z,16.77
2018-08-24T03:01:52.392Z,16.47
2018-08-24T03:04:19.683Z,17.93
2018-08-24T03:06:47.176Z,14.50
2018-08-24T03:09:14.483Z,17.43
2018-08-24T03:11:41.803Z,19.60
2018-08-24T03:14:09.342Z,18.27
2018-08-24T03:16:36.672Z,19.67
2018-08-24T03:19:03.967Z,17.33
2018-08-24T03:21:31.322Z,16.03
2018-08-24T03:23:58.648Z,17.10
2018-08-24T03:26:25.963Z,19.27
2018-08-24T03:28:53.459Z,17.73
2018-08-24T03:31:20.771Z,20.70
2018-08-24T03:33:48.095Z,16.57
2018-08-24T03:36:15.426Z,17.23
2018-08-24T03:38:43.088Z,17.80
2018-08-24T03:41:10.406Z,17.20
2018-08-24T03:43:37.725Z,20.17
2018-08-24T03:46:05.097Z,22.03
2018-08-24T03:48:33.432Z,23.77
2018-08-24T03:51:00.792Z,18.90
2018-08-24T03:53:28.098Z,19.77
2018-08-24T03:55:55.600Z,20.10
2018-08-24T03:58:22.944Z,19.60
2018-08-24T04:00:54.883Z,23.17
2018-08-24T04:03:22.279Z,22.27
2018-08-24T04:05:49.599Z,24.13
2018-08-24T04:08:16.936Z,21.30
2018-08-24T04:10:44.242Z,24.73
2018-08-24T04:13:11.539Z,22.57
2018-08-24T04:15:38.829Z,24.03
2018-08-24T04:18:06.198Z,23.13
2018-08-24T04:20:33.491Z,19.10
2018-08-24T04:23:00.800Z,24.13
2018-08-24T04:25:28.110Z,21.50
2018-08-24T04:27:55.479Z,21.13
2018-08-24T04:30:22.796Z,20.23
2018-08-24T04:32:50.111Z,23.87
2018-08-24T04:35:17.424Z,22.73
2018-08-24T04:37:44.772Z,22.33
2018-08-24T04:40:12.168Z,25.30
2018-08-24T04:42:39.469Z,21.03
2018-08-24T04:45:06.808Z,23.27
2018-08-24T04:47:34.141Z,21.63
2018-08-24T04:50:01.424Z,22.23
2018-08-24T04:52:28.765Z,22.07
2018-08-24T04:54:56.103Z,23.37
2018-08-24T04:57:23.388Z,21.03
2018-08-24T04:59:50.703Z,21.93
2018-08-24T05:02:18.011Z,19.10
2018-08-24T05:04:45.385Z,20.53
2018-08-24T05:07:12.686Z,21.67
2018-08-24T05:09:39.981Z,19.80
2018-08-24T05:12:07.332Z,19.23
2018-08-24T05:14:34.620Z,18.93
2018-08-24T05:17:01.916Z,20.33
2018-08-24T05:19:29.267Z,17.50
2018-08-24T05:21:56.626Z,17.93
2018-08-24T05:24:23.944Z,20.23
2018-08-24T05:26:51.276Z,18.37
2018-08-24T05:29:18.580Z,21.47
2018-08-24T05:31:46.699Z,16.80
2018-08-24T05:34:14.183Z,17.47
2018-08-24T05:36:41.526Z,16.47
2018-08-24T05:39:09.188Z,21.17
2018-08-24T05:41:36.535Z,17.27
2018-08-24T05:44:04.013Z,20.23
2018-08-24T05:46:31.560Z,15.63
2018-08-24T05:48:58.904Z,15.00
2018-08-24T05:51:26.191Z,15.27
2018-08-24T05:53:53.502Z,15.60
2018-08-24T05:56:21.088Z,13.67
2018-08-24T05:58:48.397Z,13.73
2018-08-24T06:01:15.727Z,12.50
2018-08-24T06:03:43.373Z,12.83
2018-08-24T06:06:10.692Z,11.57
2018-08-24T06:08:38.021Z,11.00
2018-08-24T06:11:05.730Z,12.07
2018-08-24T06:13:33.252Z,11.20
2018-08-24T06:16:00.614Z,10.33
2018-08-24T06:18:28.217Z,11.93
2018-08-24T06:20:55.543Z,12.00
2018-08-24T06:23:22.902Z,6.57
2018-08-24T06:25:50.471Z,8.10
2018-08-24T06:28:17.754Z,8.57
2018-08-24T06:30:45.063Z,7.50
2018-08-24T06:33:12.455Z,10.73
2018-08-24T06:35:39.763Z,11.63
2018-08-24T06:38:07.063Z,6.20
2018-08-24T06:40:34.596Z,7.20
2018-08-24T06:43:01.903Z,9.17
2018-08-24T06:45:29.214Z,9.10
2018-08-24T06:47:56.525Z,5.33
2018-08-24T06:50:23.824Z,7.87
2018-08-24T06:52:51.184Z,8.37
2018-08-24T06:55:18.473Z,6.83
2018-08-24T06:57:45.764Z,7.97
2018-08-24T07:00:13.125Z,11.77
2018-08-24T07:02:40.423Z,5.07
2018-08-24T07:05:08.145Z,5.97
2018-08-24T07:07:35.684Z,8.23
2018-08-24T07:10:03.020Z,6.60
2018-08-24T07:12:30.428Z,5.37
2018-08-24T07:14:57.903Z,11.60
2018-08-24T07:17:30.858Z,7.10
2018-08-24T07:19:58.522Z,6.50
2018-08-24T07:22:25.862Z,6.23
2018-08-24T07:24:53.144Z,10.77
2018-08-24T07:27:20.604Z,7.83
2018-08-24T07:29:48.077Z,7.47
2018-08-24T07:32:15.373Z,7.90
2018-08-24T07:34:42.712Z,7.60
2018-08-24T07:37:10.017Z,7.77
2018-08-24T07:39:37.404Z,8.03
2018-08-24T07:42:04.815Z,7.33
2018-08-24T07:44:36.733Z,7.93
2018-08-24T07:47:04.046Z,5.20
2018-08-24T07:49:31.455Z,6.23
2018-08-24T07:51:58.835Z,7.73
2018-08-24T07:54:26.137Z,5.23
2018-08-24T07:56:53.493Z,4.30
2018-08-24T07:59:20.767Z,6.53
2018-08-24T08:01:48.267Z,5.17
2018-08-24T08:04:15.588Z,10.23
2018-08-24T08:06:42.941Z,11.87
2018-08-24T08:09:10.260Z,4.70
2018-08-24T08:11:39.539Z,4.13
2018-08-24T08:14:07.209Z,7.87
2018-08-24T08:16:34.732Z,6.17
2018-08-24T08:19:02.059Z,10.30
2018-08-24T08:21:29.729Z,9.70
2018-08-24T08:23:57.108Z,3.83
2018-08-24T08:26:24.685Z,4.03
2018-08-24T08:28:51.988Z,7.43
2018-08-24T08:31:19.315Z,5.73
2018-08-24T08:33:46.680Z,4.53
2018-08-24T08:36:13.992Z,7.80
2018-08-24T08:38:41.375Z,4.07
2018-08-24T08:41:08.685Z,5.50
2018-08-24T08:43:36.039Z,6.90
2018-08-24T08:46:03.355Z,3.67
2018-08-24T08:48:30.882Z,3.77
2018-08-24T08:50:58.335Z,7.87
2018-08-24T08:53:25.641Z,4.00
2018-08-24T08:55:52.955Z,7.17
2018-08-24T08:58:20.268Z,5.27
2018-08-24T09:00:47.556Z,3.90
2018-08-24T09:03:14.919Z,5.57
2018-08-24T09:05:42.292Z,4.60
2018-08-24T09:08:09.577Z,4.93
2018-08-24T09:10:36.859Z,1.77
2018-08-24T09:13:04.214Z,2.67
2018-08-24T09:15:31.675Z,3.53
2018-08-24T09:18:04.815Z,4.37
2018-08-24T09:20:37.800Z,5.47
2018-08-24T09:23:10.940Z,5.67
2018-08-24T09:25:43.995Z,4.23
2018-08-24T09:28:16.957Z,3.43
2018-08-24T09:30:48.332Z,3.40
2018-08-24T09:33:15.718Z,4.70
2018-08-24T09:35:43.016Z,3.77
2018-08-24T09:38:10.327Z,4.30
2018-08-24T09:40:43.268Z,3.03
2018-08-24T09:43:16.202Z,4.33
2018-08-24T09:45:43.540Z,1.50
2018-08-24T09:48:16.591Z,3.50
2018-08-24T09:51:52.499Z,3.00
2018-08-24T09:54:19.792Z,2.93
2018-08-24T09:56:47.174Z,3.00
2018-08-24T09:59:14.667Z,4.67
2018-08-24T10:01:47.682Z,3.73
2018-08-24T10:04:20.595Z,6.50
2018-08-24T10:06:53.637Z,3.37
2018-08-24T10:09:20.957Z,4.37
2018-08-24T10:11:48.253Z,2.40
2018-08-24T10:14:15.587Z,4.50
2018-08-24T10:16:42.991Z,3.37
2018-08-24T10:19:13.479Z,3.63
2018-08-24T10:21:40.825Z,2.87
2018-08-24T10:24:08.403Z,3.03
2018-08-24T10:26:35.753Z,3.23
2018-08-24T10:29:03.308Z,2.07
2018-08-24T10:31:30.601Z,2.93
2018-08-24T10:33:58.025Z,3.03
2018-08-24T10:36:25.570Z,3.03
2018-08-24T10:38:52.924Z,2.23
2018-08-24T10:41:20.193Z,3.93
2018-08-24T10:43:47.509Z,4.37
2018-08-24T10:46:14.801Z,3.43
2018-08-24T10:48:42.323Z,6.47
2018-08-24T10:51:09.620Z,3.47
2018-08-24T10:53:37.147Z,2.77
2018-08-24T10:56:04.728Z,3.10
2018-08-24T10:58:31.999Z,2.93
2018-08-24T11:00:59.296Z,2.50
2018-08-24T11:03:26.627Z,3.23
2018-08-24T11:05:54.117Z,2.47
2018-08-24T11:08:21.424Z,1.90
2018-08-24T11:10:48.703Z,3.83
2018-08-24T11:13:15.989Z,2.27
2018-08-24T11:15:43.752Z,2.10
2018-08-24T11:18:11.406Z,6.33
2018-08-24T11:20:39.987Z,4.20
2018-08-24T11:23:07.667Z,2.63
2018-08-24T11:25:34.921Z,1.80
2018-08-24T11:28:02.464Z,4.50
2018-08-24T11:30:29.758Z,1.83
2018-08-24T11:32:57.547Z,3.57
2018-08-24T11:35:25.001Z,1.97
2018-08-24T11:37:52.295Z,2.57
2018-08-24T11:40:19.967Z,4.97
2018-08-24T11:42:47.516Z,5.43
2018-08-24T11:45:15.070Z,2.23
2018-08-24T11:47:42.422Z,2.23
2018-08-24T11:50:09.731Z,4.63
2018-08-24T11:52:37.347Z,2.13
2018-08-24T11:55:04.947Z,6.40
2018-08-24T11:57:32.236Z,5.80
2018-08-24T11:59:59.723Z,4.87
2018-08-24T12:02:27.056Z,2.20
2018-08-24T12:04:54.365Z,3.27
2018-08-24T12:07:21.675Z,6.87
2018-08-24T12:09:49.140Z,4.17
2018-08-24T12:12:16.518Z,1.90
2018-08-24T12:14:43.809Z,1.80
2018-08-24T12:17:13.276Z,2.27
2018-08-24T12:19:40.547Z,5.97
2018-08-24T12:22:07.850Z,3.37
2018-08-24T12:24:35.174Z,3.57
2018-08-24T12:27:02.539Z,2.37
2018-08-24T12:29:29.869Z,4.70
2018-08-24T12:31:57.243Z,2.77
2018-08-24T12:34:24.604Z,4.43
2018-08-24T12:36:52.047Z,3.50
2018-08-24T12:39:19.391Z,3.50
2018-08-24T12:41:46.733Z,3.70
2018-08-24T12:44:14.057Z,3.23
2018-08-24T12:46:41.385Z,2.43
2018-08-24T12:49:08.726Z,2.53
2018-08-24T12:51:36.086Z,3.77
2018-08-24T12:54:03.415Z,3.07
2018-08-24T12:56:30.717Z,3.03
2018-08-24T13:01:41.507Z,3.10
2018-08-24T13:04:08.779Z,2.93
2018-08-24T13:06:36.131Z,2.33
2018-08-24T13:09:05.048Z,2.27
2018-08-24T13:11:32.355Z,3.07
2018-08-24T13:13:59.660Z,4.47
2018-08-24T13:16:28.236Z,3.03
2018-08-24T13:18:55.668Z,4.83
2018-08-24T13:21:22.980Z,4.77
2018-08-24T13:23:50.372Z,2.93
2018-08-24T13:26:17.676Z,3.33
2018-08-24T13:28:45.012Z,4.03
2018-08-24T13:31:12.371Z,3.33
2018-08-24T13:33:39.785Z,2.70
2018-08-24T13:36:07.156Z,3.87
2018-08-24T13:38:34.484Z,4.23
2018-08-24T13:41:01.916Z,2.30
2018-08-24T13:43:29.267Z,3.57
2018-08-24T13:45:56.617Z,2.03
2018-08-24T13:48:24.222Z,3.53
2018-08-24T13:50:51.561Z,1.70
2018-08-24T13:53:18.904Z,2.70
2018-08-24T13:55:46.489Z,3.90
2018-08-24T13:58:13.911Z,2.20
2018-08-24T14:00:41.275Z,3.10
2018-08-24T14:03:09.003Z,3.13
2018-08-24T14:05:36.297Z,4.53
2018-08-24T14:08:03.621Z,2.60
2018-08-24T14:10:30.963Z,2.40
2018-08-24T14:12:58.528Z,2.87
2018-08-24T14:15:25.823Z,4.33
2018-08-24T14:17:53.905Z,3.47
2018-08-24T14:20:22.700Z,2.67
2018-08-24T14:22:50.262Z,1.77
2018-08-24T14:25:18.023Z,2.00
2018-08-24T14:27:45.371Z,2.03
2018-08-24T14:30:12.793Z,2.77
2018-08-24T14:32:40.135Z,2.30
2018-08-24T14:35:07.641Z,2.23
2018-08-24T14:37:35.064Z,4.20
2018-08-24T14:40:02.516Z,2.37
2018-08-24T14:42:29.878Z,1.90
2018-08-24T14:44:57.270Z,2.87
2018-08-24T14:47:24.648Z,2.20
2018-08-24T14:49:52.078Z,4.03
2018-08-24T14:52:19.431Z,3.00
2018-08-24T14:54:46.751Z,3.57
2018-08-24T14:57:14.707Z,3.77
2018-08-24T14:59:42.014Z,3.10
2018-08-24T15:02:09.343Z,1.47
2018-08-24T15:04:37.000Z,2.50
2018-08-24T15:07:04.815Z,2.67
2018-08-24T15:09:32.173Z,0.97
2018-08-24T15:11:59.511Z,5.00
2018-08-24T15:14:26.948Z,3.23
2018-08-24T15:16:54.491Z,2.50
2018-08-24T15:19:21.839Z,2.20
2018-08-24T15:21:49.224Z,3.90
2018-08-24T15:24:16.690Z,4.80
2018-08-24T15:26:44.036Z,3.43
2018-08-24T15:29:11.427Z,2.10
2018-08-24T15:31:38.732Z,2.73
2018-08-24T15:34:06.080Z,3.13
2018-08-24T15:36:33.439Z,2.83
2018-08-24T15:39:00.768Z,2.27
2018-08-24T15:41:28.103Z,6.57
2018-08-24T15:43:55.423Z,2.03
2018-08-24T15:46:22.772Z,3.17
2018-08-24T15:48:50.091Z,7.23
2018-08-24T15:51:17.427Z,4.23
2018-08-24T15:53:44.754Z,2.77
2018-08-24T15:56:12.048Z,2.67
2018-08-24T15:58:39.405Z,2.47
2018-08-24T16:01:06.886Z,3.70
2018-08-24T16:03:34.211Z,2.70
2018-08-24T16:06:01.561Z,1.97
2018-08-24T16:08:29.069Z,1.63
2018-08-24T16:10:56.379Z,2.43
2018-08-24T16:13:23.728Z,3.23
2018-08-24T16:15:51.045Z,2.30
2018-08-24T16:18:23.300Z,3.23
2018-08-24T16:20:51.182Z,3.77
2018-08-24T16:23:18.479Z,2.70
2018-08-24T16:25:46.177Z,2.73
2018-08-24T16:28:13.745Z,3.80
2018-08-24T16:30:41.067Z,3.17
2018-08-24T16:33:08.432Z,2.90
2018-08-24T16:35:35.774Z,4.17
2018-08-24T16:38:03.107Z,2.77
2018-08-24T16:40:30.412Z,2.30
2018-08-24T16:42:57.731Z,2.23
2018-08-24T16:45:25.070Z,2.77
2018-08-24T16:47:52.780Z,3.07
2018-08-24T16:50:20.347Z,3.30
2018-08-24T16:52:47.674Z,4.97
2018-08-24T16:55:15.016Z,3.70
2018-08-24T16:57:42.417Z,2.83
2018-08-24T17:00:09.756Z,2.13
2018-08-24T17:02:37.431Z,2.17
2018-08-24T17:05:05.332Z,1.30
2018-08-24T17:07:32.673Z,1.33
2018-08-24T17:10:00.000Z,4.73
2018-08-24T17:12:27.769Z,3.70
2018-08-24T17:14:55.144Z,3.27
2018-08-24T17:17:22.469Z,2.87
2018-08-24T17:19:49.864Z,3.17
2018-08-24T17:22:17.202Z,5.30
2018-08-24T17:24:44.741Z,2.43
2018-08-24T17:27:12.125Z,2.00
2018-08-24T17:29:39.415Z,1.87
2018-08-24T17:32:06.907Z,1.47
2018-08-24T17:34:41.071Z,2.93
2018-08-24T17:37:08.405Z,2.50
2018-08-24T17:39:35.752Z,3.03
2018-08-24T17:42:03.073Z,3.93
2018-08-24T17:44:30.642Z,3.80
2018-08-24T17:46:58.024Z,3.83
2018-08-24T17:49:25.386Z,2.83
2018-08-24T17:51:52.715Z,3.50
2018-08-24T17:54:20.054Z,1.90
2018-08-24T17:56:47.377Z,6.17
2018-08-24T17:59:14.719Z,1.70
2018-08-24T18:01:42.072Z,3.40
2018-08-24T18:04:09.581Z,2.57
2018-08-24T18:06:36.915Z,2.07
2018-08-24T18:09:07.077Z,4.10
2018-08-24T18:11:34.533Z,3.47
2018-08-24T18:14:01.965Z,2.43
2018-08-24T18:16:29.277Z,1.83
2018-08-24T18:18:57.117Z,2.83
2018-08-24T18:21:24.656Z,2.60
2018-08-24T18:23:52.554Z,3.47
2018-08-24T18:26:20.040Z,2.33
2018-08-24T18:28:47.349Z,3.07
2018-08-24T18:31:14.692Z,1.67
2018-08-24T18:33:41.999Z,2.00
2018-08-24T18:36:09.325Z,2.50
2018-08-24T18:38:36.664Z,2.00
2018-08-24T18:41:04.212Z,2.67
2018-08-24T18:43:31.528Z,2.53
2018-08-24T18:45:58.852Z,3.53
2018-08-24T18:48:26.233Z,3.03
2018-08-24T18:50:53.587Z,2.17
2018-08-24T18:53:20.881Z,3.80
2018-08-24T18:55:48.196Z,3.27
2018-08-24T18:58:15.521Z,2.70
2018-08-24T19:00:42.996Z,2.70
2018-08-24T19:03:10.426Z,2.70
2018-08-24T19:05:37.732Z,3.63
2018-08-24T19:08:10.129Z,2.13
2018-08-24T19:10:43.523Z,1.73
2018-08-24T19:13:17.889Z,3.70
2018-08-24T19:15:46.445Z,2.40
2018-08-24T19:18:19.395Z,3.30
2018-08-24T19:20:52.502Z,3.17
2018-08-24T19:23:19.767Z,2.87
2018-08-24T19:25:47.079Z,2.87
2018-08-24T19:28:20.056Z,2.17
2018-08-24T19:30:47.404Z,2.73
2018-08-24T19:33:14.727Z,2.33
2018-08-24T19:35:42.111Z,1.63
2018-08-24T19:38:09.417Z,3.23
2018-08-24T19:40:43.473Z,4.57
2018-08-24T19:43:10.801Z,2.67
2018-08-24T19:45:38.224Z,2.17
2018-08-24T19:48:11.261Z,4.03
2018-08-24T19:50:38.760Z,2.47
2018-08-24T19:53:06.069Z,2.80
2018-08-24T19:55:33.379Z,2.50
2018-08-24T19:58:06.513Z,4.33
2018-08-24T20:00:34.055Z,1.80
2018-08-24T20:03:01.312Z,2.00
2018-08-24T20:05:28.606Z,3.00
2018-08-24T20:08:01.676Z,3.13
2018-08-24T20:10:28.993Z,3.00
2018-08-24T20:12:56.324Z,4.13
2018-08-24T20:15:29.232Z,2.37
2018-08-24T20:17:56.531Z,4.40
2018-08-24T20:20:23.836Z,3.67
2018-08-24T20:22:51.473Z,2.37
2018-08-24T20:25:18.771Z,3.20
2018-08-24T20:27:46.679Z,2.63
2018-08-24T20:30:14.179Z,3.73
2018-08-24T20:32:41.475Z,4.50
2018-08-24T20:35:08.848Z,1.77
2018-08-24T20:37:36.307Z,3.57
2018-08-24T20:40:04.522Z,4.07
2018-08-24T20:42:31.804Z,2.43
2018-08-24T20:44:59.120Z,5.20
2018-08-24T20:47:26.484Z,3.07
2018-08-24T20:50:00.680Z,2.83
2018-08-24T20:52:28.368Z,3.00
2018-08-24T20:54:55.648Z,4.50
2018-08-24T20:57:22.931Z,4.30
2018-08-24T20:59:50.399Z,3.03
2018-08-24T21:02:17.765Z,5.77
2018-08-24T21:04:45.123Z,3.70
2018-08-24T21:07:12.602Z,3.90
2018-08-24T21:09:39.911Z,2.20
2018-08-24T21:12:07.247Z,3.63
2018-08-24T21:14:35.245Z,3.97
2018-08-24T21:17:02.903Z,6.03
2018-08-24T21:19:30.397Z,3.37
2018-08-24T21:21:58.276Z,3.57
2018-08-24T21:24:25.980Z,5.67
2018-08-24T21:26:53.524Z,2.93
2018-08-24T21:29:20.833Z,6.20
2018-08-24T21:31:48.178Z,4.77
2018-08-24T21:34:15.803Z,2.23
2018-08-24T21:36:43.133Z,2.23
2018-08-24T21:39:11.463Z,2.00
2018-08-24T21:41:39.333Z,3.50
2018-08-24T21:44:06.636Z,6.57
2018-08-24T21:46:33.954Z,4.00
2018-08-24T21:49:01.830Z,3.20
2018-08-24T21:51:29.198Z,5.73
2018-08-24T21:53:56.503Z,4.00
2018-08-24T21:56:24.276Z,4.37
2018-08-24T21:58:51.569Z,5.23
2018-08-24T22:01:18.927Z,3.90
2018-08-24T22:03:46.247Z,3.20
2018-08-24T22:06:13.599Z,2.90
2018-08-24T22:08:40.883Z,3.17
2018-08-24T22:11:08.276Z,1.93
2018-08-24T22:13:35.599Z,6.13
2018-08-24T22:16:02.908Z,3.77
2018-08-24T22:18:30.219Z,4.43
2018-08-24T22:20:57.543Z,3.00
2018-08-24T22:23:24.844Z,5.13
2018-08-24T22:25:52.168Z,3.07
2018-08-24T22:28:19.473Z,4.23
2018-08-24T22:30:46.799Z,2.53
2018-08-24T22:33:14.103Z,3.13
2018-08-24T22:35:41.389Z,5.23
2018-08-24T22:38:08.875Z,3.27
2018-08-24T22:40:36.243Z,4.87
2018-08-24T22:43:03.864Z,5.33
2018-08-24T22:45:31.352Z,4.93
2018-08-24T22:47:58.693Z,3.63
2018-08-24T22:50:26.026Z,4.23
2018-08-24T22:52:53.387Z,4.27
2018-08-24T22:55:20.707Z,3.67
2018-08-24T22:57:48.023Z,3.80
2018-08-24T23:00:15.385Z,3.80
2018-08-24T23:02:42.831Z,3.47
2018-08-24T23:05:10.388Z,3.93
2018-08-24T23:07:37.721Z,2.97
2018-08-24T23:10:11.904Z,3.80
2018-08-24T23:12:39.234Z,5.57
2018-08-24T23:15:06.650Z,2.63
2018-08-24T23:17:33.963Z,3.17
2018-08-24T23:20:01.280Z,4.00
2018-08-24T23:22:28.594Z,4.20
2018-08-24T23:24:55.915Z,1.93
2018-08-24T23:27:23.439Z,4.30
2018-08-24T23:29:50.753Z,3.43
2018-08-24T23:32:18.111Z,4.80
2018-08-24T23:34:45.579Z,2.40
2018-08-24T23:37:12.896Z,2.47
2018-08-24T23:39:40.307Z,2.93
2018-08-24T23:42:07.667Z,2.53
2018-08-24T23:44:34.987Z,4.47
2018-08-24T23:47:02.483Z,4.57
2018-08-24T23:49:30.032Z,6.20
2018-08-24T23:51:57.359Z,3.97
2018-08-24T23:54:24.628Z,2.97
2018-08-24T23:56:52.184Z,3.73
2018-08-24T23:59:19.488Z,2.73
